Time;durP1;ratioP1;P1;durP2;ratioP2;P2;SDS_P1;SDS_P2;PMS_P1;PMS_P2;Temp;Humidity;BMP_temperature;BMP_pressure;BME280_temperature;BME280_humidity;BME280_pressure;Samples;Min_cycle;Max_cycle;Signal;HPM_P1;HPM_P2
2021/11/12 00:14:24;;;;;;;30.02;14.28;;;;;;;6.85;86.91;102451.13;1697730;83;21309;-72
2021/11/12 00:16:51;;;;;;;28.87;12.30;;;;;;;6.81;86.72;102442.89;1696191;84;21203;-73
2021/11/12 00:19:25;;;;;;;33.15;13.53;;;;;;;6.76;86.79;102442.09;1764706;80;21186;-72
2021/11/12 00:21:58;;;;;;;23.07;12.45;;;;;;;6.70;86.94;102439.23;1764933;81;21189;-72
2021/11/12 00:24:31;;;;;;;28.50;12.90;;;;;;;6.65;87.17;102437.60;1765045;81;21158;-74
2021/11/12 00:27:05;;;;;;;24.20;11.78;;;;;;;6.61;87.41;102438.52;1742345;81;21320;-74
2021/11/12 00:29:48;;;;;;;20.52;11.90;;;;;;;6.60;87.58;102429.87;1764626;81;21174;-73
2021/11/12 00:32:38;;;;;;;21.80;10.82;;;;;;;6.60;87.65;102422.97;1747195;81;21455;-73
2021/11/12 00:40:25;;;;;;;27.22;10.80;;;;;;;6.58;88.16;102421.45;1734657;82;21193;-74
2021/11/12 00:45:25;;;;;;;19.40;9.93;;;;;;;6.62;88.50;102404.85;1726259;82;21412;-73
2021/11/12 00:48:10;;;;;;;21.17;10.78;;;;;;;6.63;88.63;102396.91;1723334;83;21360;-75
2021/11/12 00:51:21;;;;;;;21.57;10.25;;;;;;;6.63;88.73;102390.88;1737949;81;21332;-72
2021/11/12 00:55:45;;;;;;;22.62;10.28;;;;;;;6.64;88.75;102391.20;1701173;83;21936;-72
2021/11/12 00:58:35;;;;;;;17.98;9.00;;;;;;;6.67;88.94;102385.31;1720188;83;21230;-74
2021/11/12 01:01:06;;;;;;;28.27;11.48;;;;;;;6.70;88.97;102389.05;1710349;83;21246;-74
2021/11/12 01:03:39;;;;;;;20.08;10.55;;;;;;;6.75;89.12;102384.31;1690428;83;21654;-74
2021/11/12 01:06:11;;;;;;;20.00;9.25;;;;;;;6.83;89.12;102391.12;1718791;83;21392;-73
2021/11/12 01:08:45;;;;;;;18.57;9.73;;;;;;;6.92;89.03;102394.09;1745855;82;21186;-74
2021/11/12 01:11:19;;;;;;;20.40;10.10;;;;;;;7.02;88.87;102391.33;1746084;82;21202;-75
2021/11/12 01:13:52;;;;;;;19.05;9.53;;;;;;;7.14;88.69;102386.16;1746056;82;21846;-79
2021/11/12 01:16:24;;;;;;;;;;;;;;;7.22;88.33;102392.42;1748236;82;21384;-72
2021/11/12 01:18:56;;;;;;;16.77;8.90;;;;;;;7.24;87.94;102387.55;1745707;81;20197;-79
2021/11/12 01:21:29;;;;;;;17.23;8.28;;;;;;;7.23;87.79;102384.45;1745649;82;21354;-73
2021/11/12 01:24:01;;;;;;;15.45;8.20;;;;;;;7.25;87.72;102386.48;1745479;81;21342;-71
2021/11/12 01:26:35;;;;;;;21.93;8.43;;;;;;;7.28;87.56;102382.80;1719333;82;21302;-83
2021/11/12 01:29:08;;;;;;;19.87;9.23;;;;;;;7.26;87.53;102381.83;1740025;81;21338;-74
2021/11/12 01:31:41;;;;;;;20.23;8.78;;;;;;;7.28;87.56;102384.18;1734066;82;21741;-75
2021/11/12 01:34:15;;;;;;;17.05;7.65;;;;;;;7.32;87.47;102379.66;1727479;82;21256;-71
2021/11/12 01:36:48;;;;;;;17.50;8.55;;;;;;;7.33;87.23;102381.69;1715604;82;21250;-71
2021/11/12 01:39:22;;;;;;;17.80;7.75;;;;;;;7.30;86.97;102379.30;1743222;82;21242;-72
2021/11/12 01:41:59;;;;;;;18.12;9.08;;;;;;;7.23;86.94;102376.69;1745367;81;21377;-72
2021/11/12 01:44:36;;;;;;;18.70;8.95;;;;;;;7.16;87.07;102377.14;1745148;82;21254;-74
2021/11/12 01:47:21;;;;;;;17.95;8.60;;;;;;;7.12;87.27;102384.10;1745567;82;21290;-72
2021/11/12 01:49:51;;;;;;;16.93;8.95;;;;;;;7.07;87.35;102379.69;1743160;82;21448;-73
2021/11/12 01:52:31;;;;;;;20.65;9.05;;;;;;;7.02;87.59;102378.91;1726752;82;21200;-72
2021/11/12 01:55:03;;;;;;;15.25;8.48;;;;;;;7.03;87.80;102369.56;1729958;82;21461;-73
2021/11/12 01:58:04;;;;;;;14.85;8.13;;;;;;;7.06;87.97;102376.61;1745345;82;21904;-71
2021/11/12 02:00:26;;;;;;;10.68;6.62;;;;;;;7.06;87.94;102374.71;1740333;82;21243;-71
2021/11/12 02:02:59;;;;;;;15.83;7.80;;;;;;;7.02;87.92;102372.00;1733160;83;21199;-73
2021/11/12 02:05:32;;;;;;;13.85;6.60;;;;;;;6.97;88.04;102370.34;1733218;83;21299;-73
2021/11/12 02:08:05;;;;;;;18.10;7.70;;;;;;;6.93;88.27;102364.91;1733065;83;21849;-72
2021/11/12 02:10:37;;;;;;;17.73;7.73;;;;;;;6.89;88.53;102366.34;1733630;83;21457;-72
2021/11/12 02:13:17;;;;;;;15.25;8.45;;;;;;;6.85;88.77;102369.15;1733109;83;21270;-72
2021/11/12 02:15:50;;;;;;;12.73;6.97;;;;;;;6.83;89.08;102364.91;1733282;83;21357;-72
2021/11/12 02:18:31;;;;;;;13.80;8.20;;;;;;;6.86;89.23;102375.03;1733182;83;21778;-73
2021/11/12 02:21:25;;;;;;;18.02;8.23;;;;;;;6.88;89.38;102373.43;1733260;83;21199;-71
2021/11/12 02:23:57;;;;;;;17.17;9.15;;;;;;;6.95;89.57;102377.14;1731955;83;21231;-71
2021/11/12 02:26:25;;;;;;;14.85;8.18;;;;;;;6.95;89.38;102380.74;1732310;83;21183;-72
2021/11/12 02:28:58;;;;;;;16.32;8.33;;;;;;;6.99;89.34;102379.82;1741947;78;21261;-80
2021/11/12 02:31:31;;;;;;;15.32;8.53;;;;;;;7.06;89.43;102378.86;1747080;80;21401;-73
2021/11/12 02:34:13;;;;;;;18.65;8.68;;;;;;;7.17;89.47;102385.76;1734609;81;21397;-73
2021/11/12 02:36:46;;;;;;;13.60;7.70;;;;;;;7.27;89.37;102385.75;1711370;84;21246;-72
2021/11/12 02:39:19;;;;;;;17.25;9.10;;;;;;;7.38;89.11;102388.54;1711395;84;21253;-73
2021/11/12 02:41:52;;;;;;;;;;;;;;;7.43;88.79;102391.02;1714025;84;21735;-81
2021/11/12 02:44:29;;;;;;;16.23;8.55;;;;;;;7.45;88.37;102387.52;1720354;82;20193;-83
2021/11/12 02:46:59;;;;;;;19.30;8.63;;;;;;;7.45;88.12;102392.53;1732573;83;21405;-79
2021/11/12 02:49:32;;;;;;;18.85;9.23;;;;;;;7.50;88.00;102398.84;1732629;83;21227;-73
2021/11/12 02:52:06;;;;;;;18.32;9.28;;;;;;;7.53;87.76;102402.06;1728416;82;21246;-75
2021/11/12 02:54:40;;;;;;;15.00;9.15;;;;;;;7.56;87.55;102398.91;1724593;82;21337;-82
2021/11/12 02:57:12;;;;;;;14.43;8.10;;;;;;;7.56;87.24;102405.83;1711554;84;21221;-72
2021/11/12 02:59:46;;;;;;;12.13;8.33;;;;;;;7.54;87.01;102405.15;1711572;84;21697;-73
2021/11/12 03:02:19;;;;;;;14.30;8.20;;;;;;;7.53;86.84;102405.37;1737956;81;21340;-72
2021/11/12 03:04:52;;;;;;;17.05;7.95;;;;;;;7.53;86.76;102407.59;1765673;81;21170;-77
2021/11/12 03:07:28;;;;;;;13.35;7.67;;;;;;;7.54;86.62;102400.16;1760565;81;21883;-78
2021/11/12 03:10:01;;;;;;;16.93;8.60;;;;;;;7.52;86.52;102400.36;1744351;81;21304;-74
2021/11/12 03:12:33;;;;;;;15.23;7.78;;;;;;;7.53;86.40;102397.08;1711420;84;21214;-83
2021/11/12 03:15:07;;;;;;;10.80;7.08;;;;;;;7.50;86.21;102394.70;1711456;84;21187;-72
2021/11/12 03:17:44;;;;;;;15.43;6.78;;;;;;;7.47;86.15;102390.42;1711407;84;21210;-80
2021/11/12 03:20:18;;;;;;;15.50;8.13;;;;;;;7.47;86.06;102395.11;1711344;84;21736;-70
2021/11/12 03:22:57;;;;;;;;;;;;;;;7.45;85.94;102391.67;1714078;84;21213;-71
2021/11/12 03:25:45;;;;;;;12.88;7.42;;;;;;;7.41;85.81;102389.83;1723376;82;20598;-72
2021/11/12 03:56:48;;;;;;;16.42;9.15;;;;;;;7.21;85.91;102367.75;1758786;81;21219;-74
2021/11/12 04:02:47;;;;;;;19.35;8.90;;;;;;;7.04;86.32;102365.78;1740897;81;21335;-74
2021/11/12 04:04:46;;;;;;;24.87;11.25;;;;;;;7.04;86.72;102370.44;1713438;81;21246;-75
2021/11/12 04:18:33;;;;;;;31.42;12.28;;;;;;;6.88;87.80;102375.68;1711275;84;21201;-78
2021/11/12 04:41:04;;;;;;;29.60;13.08;;;;;;;6.93;88.19;102382.86;1719056;83;21244;-74
2021/11/12 05:25:29;;;;;;;15.80;9.95;;;;;;;7.42;87.79;102388.77;1722616;82;21746;-81
2021/11/12 05:45:20;;;;;;;27.42;11.63;;;;;;;7.11;89.57;102387.41;1760795;81;21487;-72
2021/11/12 05:55:59;;;;;;;24.60;11.55;;;;;;;7.17;90.49;102395.42;1739800;82;21163;-80
2021/11/12 05:58:33;;;;;;;24.32;11.60;;;;;;;7.28;90.76;102394.91;1746240;81;21252;-74
2021/11/12 06:01:05;;;;;;;27.70;12.40;;;;;;;7.32;90.72;102394.31;1741560;82;21865;-72
2021/11/12 06:03:39;;;;;;;24.90;11.60;;;;;;;7.34;90.79;102397.20;1746675;80;21313;-73
2021/11/12 06:06:13;;;;;;;25.60;12.25;;;;;;;7.40;90.87;102400.56;1741696;82;21461;-74
2021/11/12 06:08:46;;;;;;;22.62;11.57;;;;;;;7.49;91.05;102407.68;1744096;80;21148;-70
2021/11/12 06:11:19;;;;;;;25.17;11.83;;;;;;;7.58;91.22;102409.23;1738424;82;21832;-73
2021/11/12 06:13:53;;;;;;;25.85;12.37;;;;;;;7.65;91.17;102396.33;1737355;81;21754;-75
2021/11/12 06:16:26;;;;;;;30.30;11.40;;;;;;;7.70;91.10;102402.11;1747777;81;21164;-85
2021/11/12 06:18:59;;;;;;;17.60;10.82;;;;;;;7.76;91.09;102399.06;1741632;82;21392;-77
2021/11/12 06:21:33;;;;;;;18.95;10.88;;;;;;;7.82;91.08;102393.60;1742244;82;21379;-74
2021/11/12 06:24:05;;;;;;;25.32;11.75;;;;;;;7.88;91.00;102394.19;1738973;82;21872;-81
2021/11/12 06:26:40;;;;;;;23.55;10.23;;;;;;;7.93;90.89;102395.82;1741809;82;21328;-77
2021/11/12 06:29:13;;;;;;;23.05;11.03;;;;;;;8.01;90.79;102393.41;1737201;82;21860;-83
2021/11/12 06:31:46;;;;;;;;;;;;;;;8.09;90.71;102398.80;1741069;81;21200;-76
2021/11/12 06:34:21;;;;;;;26.20;11.45;;;;;;;8.16;90.61;102388.63;1740509;81;20182;-72
2021/11/12 06:36:54;;;;;;;36.00;13.45;;;;;;;8.21;90.49;102384.22;1740761;81;21180;-76
2021/11/12 06:39:26;;;;;;;24.30;11.55;;;;;;;8.30;90.32;102390.45;1765405;80;21162;-82
2021/11/12 06:42:02;;;;;;;28.77;14.58;;;;;;;8.40;90.22;102390.39;1734196;82;21404;-70
2021/11/12 06:44:51;;;;;;;31.15;13.98;;;;;;;8.51;90.00;102393.97;1760895;80;21750;-82
2021/11/12 06:50:13;;;;;;;28.52;12.50;;;;;;;8.87;91.28;102388.19;1734496;82;21752;-74
2021/11/12 06:52:48;;;;;;;22.48;10.48;;;;;;;9.10;91.16;102379.83;1746574;80;21880;-76
2021/11/12 06:55:22;;;;;;;26.55;12.25;;;;;;;9.52;92.90;102382.77;1766064;80;21381;-78
2021/11/12 06:57:55;;;;;;;31.60;12.28;;;;;;;9.70;92.35;102385.24;1741734;81;21301;-83
2021/11/12 07:00:29;;;;;;;22.37;11.47;;;;;;;10.13;94.53;102388.43;1751405;81;21219;-73
2021/11/12 07:03:01;;;;;;;31.50;10.65;;;;;;;10.42;92.46;102385.17;1733490;81;21755;-78
2021/11/12 07:05:36;;;;;;;29.80;11.70;;;;;;;10.47;89.55;102393.15;1721843;81;21237;-78
2021/11/12 07:08:10;;;;;;;25.60;11.48;;;;;;;10.51;87.75;102389.44;1716879;81;21815;-77
2021/11/12 07:10:47;;;;;;;23.18;10.93;;;;;;;10.51;86.20;102383.88;1746753;81;21770;-76
2021/11/12 07:13:29;;;;;;;19.17;8.95;;;;;;;10.48;85.08;102383.78;1727183;81;21237;-83
2021/11/12 07:16:01;;;;;;;16.20;8.60;;;;;;;10.46;84.22;102377.56;1742943;81;21749;-82
2021/11/12 07:18:35;;;;;;;14.40;6.95;;;;;;;10.46;83.54;102373.40;1745892;81;21178;-83
2021/11/12 07:21:07;;;;;;;;;;;;;;;10.48;83.26;102374.58;1746351;81;21217;-76
2021/11/12 07:23:41;;;;;;;13.53;7.20;;;;;;;10.51;82.84;102368.60;1732574;81;20275;-75
2021/11/12 07:26:16;;;;;;;12.80;6.15;;;;;;;10.56;82.50;102363.22;1746659;81;21834;-77
2021/11/12 07:28:49;;;;;;;11.15;7.00;;;;;;;10.65;82.01;102365.53;1745900;81;21206;-77
2021/11/12 07:31:24;;;;;;;18.73;9.00;;;;;;;10.72;81.76;102363.61;1739618;81;21239;-80
2021/11/12 07:34:00;;;;;;;14.00;8.33;;;;;;;10.78;81.21;102364.11;1749543;81;21348;-81
2021/11/12 07:36:39;;;;;;;15.60;7.87;;;;;;;10.84;80.88;102359.58;1714516;82;21214;-76
2021/11/12 07:40:00;;;;;;;11.85;7.53;;;;;;;10.93;80.71;102356.33;1703569;82;21516;-78
2021/11/12 07:47:22;;;;;;;12.47;5.80;;;;;;;11.14;79.33;102354.58;1722844;81;21200;-82
2021/11/12 07:50:00;;;;;;;8.35;4.65;;;;;;;11.21;78.94;102347.08;1719284;82;21222;-82
2021/11/12 07:52:38;;;;;;;6.35;4.12;;;;;;;11.25;78.25;102349.70;1717826;82;21211;-82
2021/11/12 07:55:14;;;;;;;6.72;4.08;;;;;;;11.30;78.06;102349.89;1714416;82;21356;-81
2021/11/12 07:57:49;;;;;;;8.00;4.58;;;;;;;11.31;77.52;102349.36;1724503;82;21342;-76
2021/11/12 08:00:23;;;;;;;8.35;3.85;;;;;;;11.32;77.29;102353.29;1731173;82;21479;-80
2021/11/12 08:02:58;;;;;;;7.60;3.77;;;;;;;11.39;77.57;102353.25;1713210;82;21199;-81
2021/11/12 08:05:38;;;;;;;13.62;5.08;;;;;;;11.45;77.43;102342.09;1725192;82;21833;-77
2021/11/12 08:08:12;;;;;;;10.15;4.55;;;;;;;11.64;79.20;102345.81;1726134;82;21329;-81
2021/11/12 08:10:54;;;;;;;13.43;6.00;;;;;;;11.67;77.33;102342.03;1726457;82;21203;-78
2021/11/12 08:16:23;;;;;;;15.25;6.08;;;;;;;11.66;76.51;102341.73;1724502;82;21380;-78
2021/11/12 08:18:58;;;;;;;19.65;5.28;;;;;;;11.70;76.19;102336.03;1717030;83;21342;-80
2021/11/12 08:29:50;;;;;;;12.88;4.60;;;;;;;11.87;74.69;102336.30;1742164;81;21242;-74
2021/11/12 08:37:55;;;;;;;11.63;3.55;;;;;;;12.07;73.61;102328.59;1744003;81;21471;-72
2021/11/12 08:48:37;;;;;;;10.38;3.30;;;;;;;12.18;72.06;102311.13;1763889;80;21372;-92
2021/11/12 08:51:13;;;;;;;4.97;2.90;;;;;;;12.21;72.02;102310.12;1764710;80;21297;-77
2021/11/12 08:53:50;;;;;;;6.33;3.30;;;;;;;12.28;72.03;102317.02;1734545;81;22033;-76
2021/11/12 08:56:25;;;;;;;7.05;2.92;;;;;;;12.35;71.90;102318.63;1756852;81;21323;-76
2021/11/12 08:59:55;;;;;;;6.75;2.80;;;;;;;12.43;72.06;102307.72;1747316;81;21336;-74
2021/11/12 09:02:04;;;;;;;9.48;5.40;;;;;;;12.48;71.07;102305.92;1693160;81;21381;-81
2021/11/12 09:04:44;;;;;;;8.60;4.17;;;;;;;12.51;71.32;102292.93;1758902;81;21277;-74
2021/11/12 09:07:18;;;;;;;12.65;4.67;;;;;;;12.65;70.80;102295.84;1745956;82;21385;-79
2021/11/12 09:09:56;;;;;;;12.47;4.15;;;;;;;12.65;70.80;102295.84;1746075;82;21772;-77
2021/11/12 09:12:29;;;;;;;9.30;3.58;;;;;;;12.69;70.51;102291.52;1763883;80;21391;-81
2021/11/12 09:15:11;;;;;;;11.00;5.67;;;;;;;12.73;70.33;102289.97;1755366;81;21309;-82
2021/11/12 09:17:45;;;;;;;8.15;4.33;;;;;;;12.79;70.27;102285.38;1764557;79;21332;-73
2021/11/12 09:20:16;;;;;;;15.20;4.67;;;;;;;12.83;69.95;102286.05;1762146;81;21371;-78
2021/11/12 09:22:51;;;;;;;12.65;5.83;;;;;;;12.86;70.05;102281.41;1763441;81;21333;-77
2021/11/12 09:25:26;;;;;;;12.58;5.15;;;;;;;12.96;73.07;102290.07;1748751;81;21377;-81
2021/11/12 09:28:00;;;;;;;12.45;4.30;;;;;;;13.13;74.41;102277.16;1762892;80;21760;-83
2021/11/12 09:30:37;;;;;;;5.53;3.40;;;;;;;13.34;74.18;102264.59;1750637;81;21722;-79
2021/11/12 09:33:14;;;;;;;4.40;3.10;;;;;;;13.58;74.12;102264.36;1762934;80;21376;-76
2021/11/12 09:35:48;;;;;;;11.20;3.45;;;;;;;13.82;71.44;102259.09;1743047;81;21276;-77
2021/11/12 09:38:22;;;;;;;5.50;3.20;;;;;;;14.05;68.54;102251.27;1740737;82;21373;-76
2021/11/12 09:40:56;;;;;;;7.40;3.08;;;;;;;14.05;68.54;102251.27;1747526;82;21827;-79
2021/11/12 09:43:28;;;;;;;6.55;3.98;;;;;;;13.94;66.28;102255.75;1741373;81;21371;-79
2021/11/12 09:46:01;;;;;;;10.10;3.95;;;;;;;13.61;65.87;102257.45;1747877;80;21289;-76
2021/11/12 09:48:34;;;;;;;16.97;3.37;;;;;;;13.61;65.87;102257.45;1741979;81;21312;-78
2021/11/12 09:51:06;;;;;;;9.35;3.12;;;;;;;13.50;66.03;102261.94;1731343;82;21389;-79
2021/11/12 09:53:41;;;;;;;6.90;3.52;;;;;;;13.41;66.11;102259.22;1720227;82;21484;-77
2021/11/12 09:56:14;;;;;;;;;;;;;;;13.33;66.37;102255.92;1744142;82;21531;-80
2021/11/12 09:58:50;;;;;;;8.23;4.03;;;;;;;13.28;66.48;102251.08;1734642;82;20203;-80
2021/11/12 10:01:34;;;;;;;12.37;5.30;;;;;;;13.28;66.48;102251.08;1737224;82;21720;-75
2021/11/12 10:04:04;;;;;;;11.70;5.60;;;;;;;13.24;66.40;102245.66;1737194;82;21267;-77
2021/11/12 10:06:36;;;;;;;12.68;4.53;;;;;;;13.22;66.50;102239.48;1735766;82;21187;-76
2021/11/12 10:09:20;;;;;;;11.68;4.00;;;;;;;13.23;66.55;102238.92;1737909;82;21875;-81
2021/11/12 10:11:56;;;;;;;7.53;4.28;;;;;;;13.27;66.63;102242.94;1735994;81;21223;-75
2021/11/12 10:14:39;;;;;;;12.10;4.37;;;;;;;13.32;66.60;102234.14;1737242;82;21243;-75
2021/11/12 10:17:12;;;;;;;8.90;4.08;;;;;;;13.32;66.60;102234.14;1739326;82;21337;-81
2021/11/12 10:19:49;;;;;;;10.98;4.12;;;;;;;13.33;66.24;102223.84;1740237;82;21338;-73
2021/11/12 10:22:27;;;;;;;11.60;3.83;;;;;;;13.38;67.36;102227.59;1732730;82;21306;-80
2021/11/12 10:25:06;;;;;;;6.12;2.75;;;;;;;13.53;70.57;102228.52;1711091;84;21374;-79
2021/11/12 10:27:43;;;;;;;13.55;3.47;;;;;;;13.71;68.93;102225.08;1710614;84;21255;-78
2021/11/12 10:30:19;;;;;;;4.03;2.77;;;;;;;13.74;67.08;102218.98;1711405;84;21195;-86
2021/11/12 10:32:57;;;;;;;9.03;3.20;;;;;;;13.81;67.93;102216.08;1710769;84;21204;-74
2021/11/12 10:35:32;;;;;;;8.10;3.58;;;;;;;13.81;67.93;102216.08;1724966;82;21892;-77
2021/11/12 10:38:11;;;;;;;6.47;3.40;;;;;;;13.89;65.82;102212.38;1754169;81;21407;-77
2021/11/12 10:40:43;;;;;;;8.35;3.55;;;;;;;13.85;65.04;102215.88;1766196;81;21830;-74
2021/11/12 10:43:23;;;;;;;7.87;3.45;;;;;;;13.85;65.04;102215.88;1766259;80;21221;-78
2021/11/12 10:46:06;;;;;;;5.90;3.77;;;;;;;13.79;66.25;102210.73;1766402;81;21356;-71
2021/11/12 10:48:39;;;;;;;8.65;4.17;;;;;;;13.79;66.25;102210.73;1771573;80;21190;-71
2021/11/12 10:51:19;;;;;;;13.22;5.00;;;;;;;13.83;65.95;102200.78;1746823;81;21367;-75
2021/11/12 10:53:53;;;;;;;17.40;8.73;;;;;;;13.86;65.36;102200.28;1770372;80;21182;-77
2021/11/12 10:56:29;;;;;;;14.25;7.17;;;;;;;13.82;64.22;102196.84;1771081;80;21247;-82
2021/11/12 10:59:07;;;;;;;25.35;10.48;;;;;;;13.83;63.98;102199.39;1742878;81;21320;-81
2021/11/12 11:01:40;;;;;;;29.30;11.45;;;;;;;13.86;65.53;102192.44;1758449;81;21339;-69
2021/11/12 11:04:21;;;;;;;40.10;19.60;;;;;;;13.88;63.62;102194.45;1761942;81;21807;-80
2021/11/12 11:06:56;;;;;;;25.57;12.45;;;;;;;13.88;63.12;102191.67;1746687;81;21346;-79
2021/11/12 11:09:39;;;;;;;36.03;16.97;;;;;;;13.87;62.88;102199.18;1749152;81;21296;-80
2021/11/12 11:12:32;;;;;;;20.25;10.10;;;;;;;13.84;62.51;102194.10;1747599;81;21841;-80
2021/11/12 11:15:23;;;;;;;16.02;6.58;;;;;;;13.83;62.16;102193.80;1753552;81;21392;-78
2021/11/12 11:18:31;;;;;;;11.45;4.80;;;;;;;13.79;62.17;102191.19;1750628;80;21975;-75
2021/11/12 11:24:00;;;;;;;13.70;3.50;;;;;;;13.69;62.09;102183.14;1750070;81;21831;-80
2021/11/12 11:26:46;;;;;;;7.97;3.58;;;;;;;13.64;61.88;102177.43;1756514;81;21334;-84
2021/11/12 11:29:23;;;;;;;10.45;3.50;;;;;;;13.64;61.88;102177.43;1769674;80;21569;-77
2021/11/12 11:31:58;;;;;;;10.72;3.30;;;;;;;13.60;61.51;102182.66;1761416;81;21740;-82
2021/11/12 11:34:31;;;;;;;17.02;4.15;;;;;;;13.54;61.74;102175.79;1776145;80;21953;-81
2021/11/12 11:37:05;;;;;;;6.17;3.33;;;;;;;13.51;61.87;102164.56;1777379;80;21238;-80
2021/11/12 11:39:36;;;;;;;;;;;;;;;13.49;62.14;102164.50;1776093;80;21265;-82
2021/11/12 11:42:10;;;;;;;10.85;5.22;;;;;;;13.58;67.37;102161.66;1748418;81;20230;-77
2021/11/12 11:44:43;;;;;;;12.20;5.30;;;;;;;13.58;67.37;102161.66;1793107;80;21174;-81
2021/11/12 11:47:19;;;;;;;14.70;4.12;;;;;;;13.76;68.78;102158.16;1776670;81;21941;-78
2021/11/12 11:49:53;;;;;;;6.72;3.65;;;;;;;13.99;68.61;102155.89;1772694;80;21235;-82
2021/11/12 11:52:28;;;;;;;9.35;4.00;;;;;;;14.21;68.17;102148.55;1777836;80;21541;-89
2021/11/12 11:55:01;;;;;;;8.63;3.27;;;;;;;14.41;67.35;102146.14;1744403;81;21316;-82
2021/11/12 11:57:34;;;;;;;13.35;3.52;;;;;;;14.55;66.20;102149.78;1749423;81;21302;-79
2021/11/12 12:00:25;;;;;;;10.63;3.15;;;;;;;14.59;62.81;102153.78;1777556;80;21358;-73
2021/11/12 12:03:22;;;;;;;10.08;3.10;;;;;;;14.52;61.86;102148.90;1755966;81;21384;-80
2021/11/12 12:06:11;;;;;;;10.90;4.05;;;;;;;14.42;61.21;102145.90;1748280;81;21205;-83
2021/11/12 12:09:03;;;;;;;6.58;3.35;;;;;;;14.27;60.51;102138.63;1769941;80;21343;-78
2021/11/12 12:11:29;;;;;;;12.03;4.17;;;;;;;14.27;60.51;102138.63;1754918;81;21195;-82
2021/11/12 12:14:20;;;;;;;11.30;3.72;;;;;;;14.22;61.07;102130.14;1773331;80;22432;-80
2021/11/12 12:17:17;;;;;;;9.70;3.72;;;;;;;14.22;62.71;102124.55;1732865;80;21309;-84
2021/11/12 12:19:59;;;;;;;14.75;4.22;;;;;;;14.29;63.17;102121.05;1772939;80;21733;-91
2021/11/12 13:21:09;;;;;;;12.00;4.65;;;;;;;13.35;59.59;102122.61;1722969;83;21675;-73
2021/11/12 13:23:52;;;;;;;10.38;4.08;;;;;;;13.34;59.82;102132.94;1763047;81;21275;-75
2021/11/12 13:26:09;;;;;;;17.95;3.87;;;;;;;13.34;59.82;102132.94;1712423;82;21397;-73
2021/11/12 13:28:48;;;;;;;9.38;4.67;;;;;;;13.32;60.00;102125.90;1740043;82;21381;-77
2021/11/12 13:31:19;;;;;;;11.03;4.30;;;;;;;13.25;60.14;102132.98;1765967;80;21796;-80
2021/11/12 13:34:02;;;;;;;6.37;3.70;;;;;;;13.18;60.38;102132.27;1774503;79;21705;-82
2021/11/12 13:36:38;;;;;;;21.82;4.50;;;;;;;13.10;60.67;102130.38;1764211;79;21226;-78
2021/11/12 13:39:28;;;;;;;8.58;4.28;;;;;;;13.02;60.92;102127.95;1759233;79;21389;-74
2021/11/12 13:42:01;;;;;;;9.23;5.60;;;;;;;12.95;61.23;102133.62;1755705;81;21833;-74
2021/11/12 13:44:38;;;;;;;16.87;6.35;;;;;;;12.89;61.49;102130.38;1758510;81;21855;-79
2021/11/12 13:47:11;;;;;;;14.78;6.70;;;;;;;12.85;61.77;102124.14;1762650;81;21333;-80
2021/11/12 13:49:48;;;;;;;13.98;6.67;;;;;;;12.81;61.87;102126.55;1757327;81;21413;-72
2021/11/12 13:52:29;;;;;;;12.80;5.55;;;;;;;12.78;62.01;102132.59;1741492;82;21911;-78
2021/11/12 13:55:13;;;;;;;21.20;7.87;;;;;;;12.73;62.26;102128.31;1709117;82;21468;-79
2021/11/12 13:57:57;;;;;;;20.80;8.08;;;;;;;12.67;62.52;102125.09;1730118;82;21195;-80
2021/11/12 14:00:36;;;;;;;16.80;8.45;;;;;;;12.63;62.74;102123.86;1727658;82;21372;-81
2021/11/12 14:03:22;;;;;;;24.23;6.40;;;;;;;12.59;62.93;102128.20;1693184;82;21741;-80
2021/11/12 14:06:00;;;;;;;25.12;6.72;;;;;;;12.56;63.15;102129.22;1740875;82;21410;-73
2021/11/12 14:08:38;;;;;;;16.85;8.20;;;;;;;12.52;63.31;102127.45;1756012;81;21353;-81
2021/11/12 14:11:27;;;;;;;25.97;9.65;;;;;;;12.50;63.50;102123.20;1729706;82;21332;-83
2021/11/12 14:14:04;;;;;;;25.77;8.05;;;;;;;12.48;63.79;102126.78;1728554;82;21357;-81
2021/11/12 14:16:52;;;;;;;24.72;9.15;;;;;;;12.47;64.04;102129.27;1759146;81;21389;-81
2021/11/12 14:22:38;;;;;;;25.20;9.18;;;;;;;12.45;64.29;102137.86;1732046;82;21562;-81
2021/11/12 14:25:29;;;;;;;21.97;9.58;;;;;;;12.45;64.29;102137.86;1726408;82;21162;-75
2021/11/12 14:28:15;;;;;;;21.82;10.15;;;;;;;12.40;64.41;102138.27;1739474;82;21559;-71
2021/11/12 14:31:06;;;;;;;33.23;10.90;;;;;;;12.33;64.50;102143.92;1728010;82;21229;-71
2021/11/12 14:34:04;;;;;;;25.97;11.03;;;;;;;12.26;64.72;102144.56;1740697;82;21344;-72
2021/11/12 14:45:42;;;;;;;25.15;10.72;;;;;;;11.89;65.84;102152.68;1744936;81;21254;-74
2021/11/12 14:47:57;;;;;;;28.62;11.73;;;;;;;11.83;66.15;102152.22;1729679;81;21233;-72
2021/11/12 14:50:43;;;;;;;31.00;11.68;;;;;;;11.79;66.46;102150.14;1729927;81;21790;-80
2021/11/12 14:53:34;;;;;;;35.80;12.70;;;;;;;11.77;66.71;102146.19;1755554;81;21762;-76
2021/11/12 14:56:10;;;;;;;37.65;14.98;;;;;;;11.74;66.87;102151.38;1744317;82;21332;-79
2021/11/12 14:59:03;;;;;;;38.00;16.62;;;;;;;11.68;67.04;102151.74;1757731;81;21194;-79
2021/11/12 15:01:38;;;;;;;53.98;23.80;;;;;;;11.63;67.15;102149.36;1743934;82;21860;-79
2021/11/12 15:04:10;;;;;;;38.65;17.48;;;;;;;11.54;67.39;102152.95;1754202;81;21181;-74
2021/11/12 15:06:43;;;;;;;43.65;16.65;;;;;;;11.44;67.64;102151.23;1766123;81;21222;-69
2021/11/12 15:09:27;;;;;;;37.13;16.93;;;;;;;11.36;67.87;102153.46;1764941;81;21349;-75
2021/11/12 15:12:05;;;;;;;34.25;14.30;;;;;;;11.28;68.17;102154.63;1766141;81;21341;-73
2021/11/12 15:14:59;;;;;;;40.78;14.85;;;;;;;11.20;68.49;102155.46;1767430;79;21331;-75
2021/11/12 15:17:33;;;;;;;32.08;14.87;;;;;;;11.14;68.74;102159.98;1730174;82;21567;-72
2021/11/12 15:20:11;;;;;;;43.85;15.90;;;;;;;11.07;69.00;102156.98;1727439;82;21367;-69
2021/11/12 15:23:12;;;;;;;41.42;19.67;;;;;;;10.99;69.21;102155.33;1727319;82;21270;-79
2021/11/12 15:25:40;;;;;;;39.35;16.25;;;;;;;10.91;69.45;102161.18;1740612;81;21258;-75
2021/11/12 15:33:46;;;;;;;38.28;16.50;;;;;;;10.73;70.17;102170.84;1739372;81;21747;-75
2021/11/12 15:36:21;;;;;;;36.15;13.65;;;;;;;10.68;70.37;102178.13;1731283;82;21736;-77
2021/11/12 15:38:58;;;;;;;50.28;19.07;;;;;;;10.63;70.64;102180.72;1748708;81;21376;-70
2021/11/12 15:44:20;;;;;;;68.47;30.50;;;;;;;10.61;71.04;102185.13;1732899;81;21368;-76
2021/11/12 15:47:20;;;;;;;67.62;31.62;;;;;;;10.56;71.09;102188.25;1731650;81;21407;-73
2021/11/12 15:49:40;;;;;;;63.23;29.25;;;;;;;10.49;71.25;102188.83;1730233;82;21396;-75
2021/11/12 15:52:24;;;;;;;68.00;31.20;;;;;;;10.43;71.45;102189.20;1733184;82;21210;-81
2021/11/12 16:14:15;;;;;;;107.37;48.60;;;;;;;10.16;72.80;102215.94;1723925;82;21317;-77
2021/11/12 16:19:48;;;;;;;113.45;50.73;;;;;;;9.98;73.01;102220.76;1736894;81;21179;-75
2021/11/12 16:27:49;;;;;;;132.40;65.65;;;;;;;9.78;73.68;102221.37;1776186;79;21202;-80
2021/11/12 16:30:22;;;;;;;157.18;59.10;;;;;;;9.71;73.89;102230.24;1805351;79;21356;-72
2021/11/12 16:32:55;;;;;;;118.85;57.00;;;;;;;9.65;74.02;102229.72;1748819;81;21198;-73
2021/11/12 16:35:30;;;;;;;113.85;54.75;;;;;;;9.59;74.16;102222.27;1719217;82;21229;-69
2021/11/12 16:38:10;;;;;;;116.37;53.80;;;;;;;9.52;74.32;102221.95;1710007;83;21290;-77
2021/11/12 16:40:43;;;;;;;131.65;49.73;;;;;;;9.46;74.55;102225.07;1724808;82;21281;-76
2021/11/12 16:57:48;;;;;;;176.90;68.07;;;;;;;9.34;75.42;102245.33;1710748;83;21273;-75
2021/11/12 17:02:33;;;;;;;174.38;71.40;;;;;;;9.24;75.64;102247.14;1725034;82;21917;-73
2021/11/12 17:05:14;;;;;;;165.05;64.07;;;;;;;9.20;75.83;102250.56;1723709;82;21229;-72
2021/11/12 17:10:42;;;;;;;156.82;65.65;;;;;;;9.21;76.08;102240.66;1719233;83;21167;-83
2021/11/12 17:13:07;;;;;;;160.85;69.22;;;;;;;9.21;76.12;102246.20;1726328;82;21174;-71
2021/11/12 17:46:36;;;;;;;166.85;74.37;;;;;;;8.77;77.33;102257.56;1732323;82;22056;-83
2021/11/12 18:02:56;;;;;;;161.92;73.67;;;;;;;8.57;78.25;102261.66;1724054;83;21359;-74